Airfield :
LOGIN :

Register | Disclaimer

   EN    FR    IT 

 










Legend :    VFR   Marginal VFR   IFR   Intensive IFR   Very Intensive IFR
Visi :
Ceiling :
>= 8 km
>= 3000ft
5 to 8 km
1000 to 3000 ft
1500m to 5 km
500 to 1000 ft
800 to 1500m
200 to 500 ft
< 800m
< 200 ft
Symbols :   Thunderstorms  Fog  Heavy snow  Heavy precipitations  Wind > 20 kt
SIGMETs :     Misc.  Thunderstorms  Icing  Turbulence  Mountain Waves  Volcanic Ashes






- Airport Elevation : 1411 ft
- IATA code : SZG


LOWS - Salzburg

CURRENT METAR :
  • 161150Z 15008KT CAVOK 10/01 Q1010 NOSIG

EXPIRED METARs :
  • 161120Z 14009KT CAVOK 10/00 Q1011 NOSIG
  • 161050Z 15008KT CAVOK 09/M00 Q1011 NOSIG
  • 161020Z 14008KT 110V170 CAVOK 08/M00 Q1012 NOSIG
  • 160950Z 15008KT CAVOK 07/M00 Q1012 NOSIG
  • 160920Z 16009KT CAVOK 06/M00 Q1012 NOSIG

TAF TAF LOWS
Valid from the 16 at 12:00 until the 17 at 12:00 UTC


161115Z 1612/1712 15007KT CAVOK TX10/1712Z TN04/1705Z
TEMPO 1618/1712 15015G25KT



MET'MAP, your aeronautical weather chart ! - Copyright ORBIFLY December 2007 - Disclaimer

ORBIFLY MET'MAP TEAM :

Programming & Development : Alexandra Zaïnal
Concept & original design : Baudouin d'Aumeries
Assistance for programming : Marc-Olivier Méhu
Technical & hardware support : Manuel Goepfert

Contact : metmap@orbifly.com




SOURCES & CREDITS :

   NOAA